createdAt,value
2023-01-10T00:02:03.624Z,15.83
2023-01-10T00:04:33.631Z,12.10
2023-01-10T00:07:02.124Z,14.07
2023-01-10T00:09:30.559Z,10.87
2023-01-10T00:12:28.231Z,17.53
2023-01-10T00:14:57.062Z,15.93
2023-01-10T00:17:25.497Z,12.60
2023-01-10T00:19:55.725Z,23.40
2023-01-10T00:22:25.308Z,12.37
2023-01-10T00:24:53.907Z,20.87
2023-01-10T00:27:23.802Z,14.57
2023-01-10T00:29:53.970Z,12.70
2023-01-10T00:32:22.788Z,17.37
2023-01-10T00:34:51.281Z,13.23
2023-01-10T00:37:21.107Z,22.17
2023-01-10T00:39:49.514Z,21.57
2023-01-10T00:42:35.371Z,17.23
2023-01-10T00:45:03.970Z,15.67
2023-01-10T00:47:32.397Z,23.07
2023-01-10T00:50:00.882Z,26.87
2023-01-10T00:52:31.126Z,20.80
2023-01-10T00:54:59.674Z,21.53
2023-01-10T00:57:28.127Z,17.17
2023-01-10T00:59:56.582Z,28.03
2023-01-10T01:02:25.123Z,14.77
2023-01-10T01:04:53.652Z,19.50
2023-01-10T01:07:22.008Z,18.33
2023-01-10T01:10:09.218Z,17.13
2023-01-10T01:12:37.698Z,15.13
2023-01-10T01:15:07.251Z,14.07
2023-01-10T01:17:35.768Z,20.80
2023-01-10T01:20:04.481Z,17.23
2023-01-10T01:22:33.152Z,13.27
2023-01-10T01:25:04.519Z,16.77
2023-01-10T01:27:33.396Z,19.60
2023-01-10T01:30:01.862Z,15.33
2023-01-10T01:32:30.331Z,17.67
2023-01-10T01:34:58.837Z,17.27
2023-01-10T01:37:27.500Z,13.00
2023-01-10T01:39:55.925Z,17.10
2023-01-10T01:42:29.856Z,20.83
2023-01-10T01:45:33.607Z,19.77
2023-01-10T01:48:11.003Z,22.23
2023-01-10T01:50:45.202Z,17.17
2023-01-10T01:53:20.190Z,17.07
2023-01-10T01:55:49.595Z,18.83
2023-01-10T01:58:23.227Z,14.40
2023-01-10T02:00:51.897Z,17.33
2023-01-10T02:03:20.758Z,25.43
2023-01-10T02:05:49.592Z,25.00
2023-01-10T02:08:18.190Z,17.57
2023-01-10T02:10:52.815Z,22.63
2023-01-10T02:13:25.943Z,20.23
2023-01-10T02:15:54.956Z,21.20
2023-01-10T02:18:24.530Z,24.23
2023-01-10T02:21:09.565Z,16.00
2023-01-10T02:24:11.808Z,24.87
2023-01-10T02:27:36.007Z,29.93
2023-01-10T02:30:48.626Z,19.90
2023-01-10T02:33:24.906Z,14.07
2023-01-10T02:36:11.055Z,18.63
2023-01-10T02:38:53.307Z,10.60
2023-01-10T02:41:32.013Z,16.13
2023-01-10T02:44:08.707Z,27.03
2023-01-10T02:46:40.942Z,25.33
2023-01-10T02:49:10.920Z,15.63
2023-01-10T02:51:41.528Z,13.83
2023-01-10T02:54:14.931Z,15.33
2023-01-10T02:57:17.681Z,18.07
2023-01-10T03:00:20.266Z,10.30
2023-01-10T03:03:09.439Z,16.63
2023-01-10T03:05:54.030Z,13.90
2023-01-10T03:08:32.398Z,16.97
2023-01-10T03:11:03.423Z,15.53
2023-01-10T03:13:39.205Z,17.33
2023-01-10T03:16:11.625Z,17.47
2023-01-10T03:18:46.318Z,15.20
2023-01-10T03:21:17.876Z,19.50
2023-01-10T03:23:48.607Z,16.27
2023-01-10T03:26:18.868Z,22.33
2023-01-10T03:28:51.098Z,15.63
2023-01-10T03:31:24.736Z,20.30
2023-01-10T03:33:53.625Z,16.87
2023-01-10T03:36:31.385Z,16.63
2023-01-10T03:39:07.531Z,18.20
2023-01-10T03:41:42.002Z,20.03
2023-01-10T03:44:36.906Z,23.10
2023-01-10T03:47:09.489Z,22.90
2023-01-10T03:49:41.166Z,17.43
2023-01-10T03:52:15.773Z,20.83
2023-01-10T03:54:45.355Z,37.63
2023-01-10T03:57:19.245Z,28.10
2023-01-10T03:59:48.705Z,16.07
2023-01-10T04:02:17.085Z,21.53
2023-01-10T04:04:45.431Z,17.83
2023-01-10T04:07:15.276Z,17.83
2023-01-10T04:09:43.764Z,25.97
2023-01-10T04:12:12.234Z,14.97
2023-01-10T04:14:40.689Z,23.80
2023-01-10T04:17:09.244Z,15.73
2023-01-10T04:19:37.614Z,20.17
2023-01-10T04:22:07.054Z,21.90
2023-01-10T04:24:37.115Z,22.63
2023-01-10T04:27:06.329Z,25.00
2023-01-10T04:29:34.715Z,23.17
2023-01-10T04:32:03.169Z,23.53
2023-01-10T04:34:31.765Z,24.27
2023-01-10T04:37:00.232Z,18.10
2023-01-10T04:39:28.673Z,31.37
2023-01-10T04:41:58.497Z,18.13
2023-01-10T04:44:26.928Z,22.97
2023-01-10T04:46:55.392Z,22.90
2023-01-10T04:49:23.758Z,11.63
2023-01-10T04:51:52.146Z,18.63
2023-01-10T04:54:22.294Z,23.60
2023-01-10T04:56:50.916Z,22.10
2023-01-10T04:59:20.873Z,17.47
2023-01-10T05:01:49.411Z,20.30
2023-01-10T05:04:20.109Z,28.60
2023-01-10T05:06:49.536Z,17.93
2023-01-10T05:09:18.033Z,16.23
2023-01-10T05:11:46.403Z,26.83
2023-01-10T05:14:14.862Z,20.17
2023-01-10T05:16:44.745Z,27.23
2023-01-10T05:19:13.424Z,19.80
2023-01-10T05:21:41.997Z,31.33
2023-01-10T05:24:11.019Z,19.77
2023-01-10T05:26:39.563Z,22.33
2023-01-10T05:29:08.025Z,30.97
2023-01-10T05:31:36.486Z,20.20
2023-01-10T05:34:06.428Z,25.80
2023-01-10T05:36:34.724Z,20.57
2023-01-10T05:39:03.179Z,28.97
2023-01-10T05:41:31.724Z,18.20
2023-01-10T05:44:00.210Z,18.00
2023-01-10T05:46:28.565Z,21.60
2023-01-10T05:48:56.929Z,23.30
2023-01-10T05:51:26.880Z,14.27
2023-01-10T05:53:55.495Z,21.67
2023-01-10T05:56:24.001Z,22.93
2023-01-10T05:59:00.932Z,27.23
2023-01-10T06:01:34.008Z,21.47
2023-01-10T06:04:02.429Z,22.83
2023-01-10T06:06:32.964Z,33.00
2023-01-10T06:09:01.589Z,20.67
2023-01-10T06:11:30.337Z,21.93
2023-01-10T06:13:58.794Z,24.33
2023-01-10T06:16:27.334Z,21.83
2023-01-10T06:18:56.126Z,27.80
2023-01-10T06:21:24.459Z,26.83
2023-01-10T06:23:54.535Z,28.73
2023-01-10T06:26:23.034Z,29.57
2023-01-10T06:28:51.578Z,24.17
2023-01-10T06:31:22.497Z,27.00
2023-01-10T06:33:52.155Z,30.60
2023-01-10T06:36:20.871Z,25.07
2023-01-10T06:38:49.389Z,21.63
2023-01-10T06:41:19.266Z,34.50
2023-01-10T06:43:48.668Z,29.77
2023-01-10T06:46:19.577Z,27.53
2023-01-10T06:48:49.072Z,30.53
2023-01-10T06:51:20.516Z,26.37
2023-01-10T06:53:49.528Z,23.10
2023-01-10T06:56:19.365Z,22.10
2023-01-10T06:58:49.961Z,25.53
2023-01-10T07:01:20.638Z,31.93
2023-01-10T07:03:50.080Z,32.93
2023-01-10T07:06:18.639Z,20.33
2023-01-10T07:08:48.352Z,22.53
2023-01-10T07:11:17.847Z,26.23
2023-01-10T07:13:47.901Z,26.53
2023-01-10T07:16:17.732Z,27.30
2023-01-10T07:18:46.448Z,34.77
2023-01-10T07:21:16.816Z,28.10
2023-01-10T07:23:45.248Z,32.80
2023-01-10T07:26:17.931Z,27.70
2023-01-10T07:28:51.565Z,28.17
2023-01-10T07:31:23.057Z,34.00
2023-01-10T07:33:52.369Z,33.93
2023-01-10T07:36:21.579Z,30.93
2023-01-10T07:38:50.345Z,32.57
2023-01-10T07:41:18.681Z,31.30
2023-01-10T07:43:49.782Z,38.40
2023-01-10T07:46:18.354Z,25.07
2023-01-10T07:48:49.193Z,38.40
2023-01-10T07:51:17.898Z,25.07
2023-01-10T07:53:46.364Z,35.50
2023-01-10T07:56:15.287Z,28.67
2023-01-10T07:58:48.302Z,31.17
2023-01-10T08:01:16.968Z,22.83
2023-01-10T08:03:45.465Z,31.70
2023-01-10T08:06:16.615Z,31.40
2023-01-10T08:08:45.258Z,31.30
2023-01-10T08:11:13.786Z,37.00
2023-01-10T08:13:42.342Z,34.33
2023-01-10T08:16:12.516Z,29.63
2023-01-10T08:18:43.129Z,28.33
2023-01-10T08:21:11.738Z,23.97
2023-01-10T08:23:40.368Z,26.13
2023-01-10T08:26:08.933Z,34.90
2023-01-10T08:28:37.561Z,25.37
2023-01-10T08:31:07.580Z,30.27
2023-01-10T08:33:39.251Z,26.97
2023-01-10T08:36:15.416Z,32.10
2023-01-10T08:38:43.886Z,35.03
2023-01-10T08:41:12.412Z,38.70
2023-01-10T08:43:41.665Z,30.50
2023-01-10T08:46:10.204Z,33.57
2023-01-10T08:48:40.250Z,38.07
2023-01-10T08:51:10.365Z,28.07
2023-01-10T08:53:40.640Z,32.67
2023-01-10T08:56:10.048Z,35.77
2023-01-10T08:58:38.587Z,25.70
2023-01-10T09:01:07.737Z,31.27
2023-01-10T09:03:36.377Z,30.73
2023-01-10T09:06:07.063Z,39.90
2023-01-10T09:08:36.230Z,31.10
2023-01-10T09:11:06.142Z,35.43
2023-01-10T09:13:35.336Z,29.50
2023-01-10T09:16:04.036Z,24.97
2023-01-10T09:18:32.418Z,35.00
2023-01-10T09:21:01.523Z,36.43
2023-01-10T09:23:31.399Z,37.47
2023-01-10T09:26:02.965Z,35.10
2023-01-10T09:28:32.071Z,31.47
2023-01-10T09:31:01.399Z,45.07
2023-01-10T09:33:44.961Z,25.37
2023-01-10T09:36:15.908Z,29.33
2023-01-10T09:38:46.222Z,26.93
2023-01-10T09:41:36.983Z,33.37
2023-01-10T09:44:07.386Z,28.10
2023-01-10T09:46:44.781Z,28.43
2023-01-10T09:49:23.681Z,27.53
2023-01-10T09:51:54.458Z,32.77
2023-01-10T09:54:29.785Z,38.40
2023-01-10T09:57:01.903Z,30.37
2023-01-10T09:59:41.644Z,31.50
2023-01-10T10:02:24.861Z,28.67
2023-01-10T10:05:06.019Z,26.13
2023-01-10T10:07:34.804Z,33.70
2023-01-10T10:10:06.840Z,33.30
2023-01-10T10:12:42.900Z,20.00
2023-01-10T10:15:21.655Z,22.70
2023-01-10T10:18:01.948Z,26.93
2023-01-10T10:20:41.130Z,16.23
2023-01-10T10:23:35.777Z,30.77
2023-01-10T10:26:10.979Z,24.73
2023-01-10T10:28:55.813Z,32.00
2023-01-10T10:31:39.991Z,27.63
2023-01-10T10:34:15.364Z,27.47
2023-01-10T10:36:51.633Z,22.27
2023-01-10T10:39:25.057Z,24.80
2023-01-10T10:41:56.924Z,33.30
2023-01-10T10:44:35.506Z,29.20
2023-01-10T10:47:04.099Z,25.27
2023-01-10T10:49:40.056Z,25.13
2023-01-10T10:52:18.694Z,25.63
2023-01-10T10:54:47.917Z,27.30
2023-01-10T10:57:17.811Z,24.27
2023-01-10T10:59:48.878Z,19.30
2023-01-10T11:02:26.802Z,33.00
2023-01-10T11:04:58.852Z,22.67
2023-01-10T11:07:30.992Z,28.33
2023-01-10T11:10:31.924Z,25.17
2023-01-10T11:13:03.262Z,27.83
2023-01-10T11:15:40.867Z,27.77
2023-01-10T11:18:13.653Z,25.50
2023-01-10T11:20:50.633Z,27.00
2023-01-10T11:23:31.995Z,25.40
2023-01-10T11:26:00.643Z,25.13
2023-01-10T11:28:34.718Z,24.67
2023-01-10T11:31:04.842Z,33.70
2023-01-10T11:33:36.446Z,22.60
2023-01-10T11:36:07.237Z,24.60
2023-01-10T11:38:36.115Z,19.93
2023-01-10T11:41:06.712Z,24.27
2023-01-10T11:43:38.235Z,23.30
2023-01-10T11:46:14.659Z,31.33
2023-01-10T11:51:38.339Z,21.93
2023-01-10T11:54:11.516Z,20.73
2023-01-10T11:56:43.646Z,26.10
2023-01-10T11:59:16.672Z,25.47
2023-01-10T12:01:49.257Z,21.17
2023-01-10T12:04:18.763Z,28.07
2023-01-10T12:06:49.444Z,23.60
2023-01-10T12:09:36.177Z,28.37
2023-01-10T12:12:06.270Z,24.37
2023-01-10T12:14:36.224Z,23.23
2023-01-10T12:17:05.277Z,18.73
2023-01-10T12:19:34.370Z,30.60
2023-01-10T12:22:08.924Z,23.60
2023-01-10T12:24:45.161Z,19.40
2023-01-10T12:27:16.217Z,21.37
2023-01-10T12:29:53.461Z,25.70
2023-01-10T12:32:27.528Z,18.17
2023-01-10T12:35:02.366Z,21.73
2023-01-10T12:37:41.820Z,19.17
2023-01-10T12:40:17.461Z,19.27
2023-01-10T12:43:11.028Z,19.27
2023-01-10T12:45:46.590Z,21.37
2023-01-10T12:48:23.257Z,22.83
2023-01-10T12:50:58.779Z,24.83
2023-01-10T12:53:32.992Z,19.37
2023-01-10T12:56:06.058Z,23.93
2023-01-10T12:58:44.227Z,22.27
2023-01-10T13:01:17.544Z,30.13
2023-01-10T13:03:48.128Z,19.07
2023-01-10T13:06:24.063Z,24.87
2023-01-10T13:08:52.935Z,23.53
2023-01-10T13:11:25.998Z,21.47
2023-01-10T13:14:00.882Z,20.83
2023-01-10T13:16:37.307Z,23.50
2023-01-10T13:19:24.667Z,24.40
2023-01-10T13:22:20.443Z,21.47
2023-01-10T13:25:00.985Z,24.43
2023-01-10T13:27:33.604Z,16.63
2023-01-10T13:30:03.435Z,15.90
2023-01-10T13:32:36.509Z,23.67
2023-01-10T13:35:16.154Z,22.47
2023-01-10T13:37:52.121Z,18.87
2023-01-10T13:40:26.015Z,21.00
2023-01-10T13:43:34.472Z,21.33
2023-01-10T13:46:38.480Z,15.13
2023-01-10T13:49:28.747Z,24.03
2023-01-10T13:52:40.193Z,18.80
2023-01-10T13:55:34.587Z,18.20
2023-01-10T13:58:05.838Z,19.73
2023-01-10T14:01:11.540Z,19.43
2023-01-10T14:03:49.005Z,29.37
2023-01-10T14:06:55.258Z,20.37
2023-01-10T14:09:44.668Z,20.13
2023-01-10T14:12:25.198Z,15.50
2023-01-10T14:14:59.440Z,24.23
2023-01-10T14:17:30.491Z,17.90
2023-01-10T14:20:04.370Z,24.80
2023-01-10T14:22:36.156Z,19.13
2023-01-10T14:25:07.509Z,20.83
2023-01-10T14:27:45.170Z,28.37
2023-01-10T14:30:20.709Z,22.07
2023-01-10T14:32:52.242Z,23.10
2023-01-10T14:35:23.687Z,20.37
2023-01-10T14:37:57.287Z,17.00
2023-01-10T14:40:35.566Z,16.40
2023-01-10T14:43:08.113Z,22.17
2023-01-10T14:45:41.279Z,19.67
2023-01-10T14:48:24.804Z,17.00
2023-01-10T14:50:53.452Z,22.00
2023-01-10T14:53:31.348Z,22.20
2023-01-10T14:55:59.971Z,16.53
2023-01-10T14:58:28.491Z,17.90
2023-01-10T15:00:57.854Z,24.13
2023-01-10T15:03:27.001Z,19.37
2023-01-10T15:05:58.687Z,16.63
2023-01-10T15:08:30.494Z,23.20
2023-01-10T15:11:05.924Z,16.50
2023-01-10T15:13:42.160Z,17.77
2023-01-10T15:16:18.889Z,24.67
2023-01-10T15:18:48.695Z,20.77
2023-01-10T15:21:22.229Z,21.53
2023-01-10T15:23:52.566Z,19.00
2023-01-10T15:26:27.707Z,28.37
2023-01-10T15:29:13.704Z,20.10
2023-01-10T15:31:44.557Z,25.77
2023-01-10T15:34:18.295Z,19.67
2023-01-10T15:36:50.093Z,30.17
2023-01-10T15:39:25.246Z,14.10
2023-01-10T15:41:59.314Z,19.17
2023-01-10T15:44:40.085Z,17.83
2023-01-10T15:47:40.200Z,25.57
2023-01-10T15:50:24.236Z,25.00
2023-01-10T15:52:54.891Z,22.77
2023-01-10T15:55:40.694Z,17.13
2023-01-10T15:58:18.882Z,23.17
2023-01-10T16:00:48.376Z,18.97
2023-01-10T16:03:24.935Z,19.07
2023-01-10T16:05:56.476Z,20.83
2023-01-10T16:08:27.130Z,16.13
2023-01-10T16:11:01.558Z,17.80
2023-01-10T16:13:29.244Z,13.07
2023-01-10T16:15:57.798Z,18.00
2023-01-10T16:18:27.274Z,18.13
2023-01-10T16:20:58.947Z,19.23
2023-01-10T16:23:31.840Z,20.57
2023-01-10T16:26:03.946Z,17.77
2023-01-10T16:28:36.297Z,14.07
2023-01-10T16:31:06.561Z,15.40
2023-01-10T16:33:37.656Z,16.47
2023-01-10T16:36:16.154Z,17.97
2023-01-10T16:38:44.760Z,14.73
2023-01-10T16:41:33.339Z,12.13
2023-01-10T16:44:01.916Z,13.40
2023-01-10T16:46:31.221Z,18.70
2023-01-10T16:49:00.155Z,10.83
2023-01-10T16:51:32.804Z,9.23
2023-01-10T16:54:01.555Z,18.43
2023-01-10T16:56:31.782Z,10.63
2023-01-10T16:59:00.302Z,17.20
2023-01-10T17:01:31.899Z,13.93
2023-01-10T17:04:01.486Z,15.57
2023-01-10T17:06:30.011Z,17.50
2023-01-10T17:08:58.547Z,13.50
2023-01-10T17:11:30.382Z,20.60
2023-01-10T17:14:01.211Z,10.77
2023-01-10T17:16:29.907Z,12.60
2023-01-10T17:18:58.456Z,11.73
2023-01-10T17:21:27.054Z,11.33
2023-01-10T17:23:55.627Z,9.80
2023-01-10T17:26:24.281Z,10.80
2023-01-10T17:28:52.797Z,8.47
2023-01-10T17:31:22.612Z,10.43
2023-01-10T17:33:51.556Z,7.67
2023-01-10T17:36:21.131Z,12.50
2023-01-10T17:38:49.928Z,8.17
2023-01-10T17:41:18.388Z,15.33
2023-01-10T17:43:46.913Z,8.97
2023-01-10T17:46:17.791Z,12.37
2023-01-10T17:48:47.782Z,7.80
2023-01-10T17:51:17.500Z,8.17
2023-01-10T17:53:45.897Z,12.90
2023-01-10T17:56:14.588Z,10.00
2023-01-10T17:58:43.130Z,7.93
2023-01-10T18:01:20.861Z,8.40
2023-01-10T18:03:53.148Z,9.50
2023-01-10T18:06:24.670Z,7.83
2023-01-10T18:08:53.977Z,11.43
2023-01-10T18:11:22.947Z,4.57
2023-01-10T18:13:51.589Z,5.73
2023-01-10T18:16:20.085Z,7.60
2023-01-10T18:18:48.581Z,6.93
2023-01-10T18:21:20.301Z,8.27
2023-01-10T18:23:50.061Z,4.17
2023-01-10T18:26:19.861Z,10.47
2023-01-10T18:28:48.273Z,7.03
2023-01-10T18:31:18.725Z,6.37
2023-01-10T18:33:48.646Z,3.80
2023-01-10T18:36:21.960Z,4.30
2023-01-10T18:38:51.059Z,4.60
2023-01-10T18:41:20.864Z,6.73
2023-01-10T18:43:49.558Z,7.70
2023-01-10T18:46:20.341Z,5.60
2023-01-10T18:48:50.413Z,4.00
2023-01-10T18:51:21.818Z,5.43
2023-01-10T18:53:52.886Z,6.30
2023-01-10T18:56:21.548Z,6.70
2023-01-10T18:58:50.132Z,4.83
2023-01-10T19:01:22.251Z,10.23
2023-01-10T19:03:51.330Z,6.07
2023-01-10T19:06:22.960Z,3.30
2023-01-10T19:08:52.663Z,3.30
2023-01-10T19:11:21.673Z,4.83
2023-01-10T19:13:53.333Z,5.17
2023-01-10T19:16:23.991Z,4.43
2023-01-10T19:18:54.566Z,4.20
2023-01-10T19:21:25.898Z,9.90
2023-01-10T19:23:56.725Z,3.00
2023-01-10T19:26:25.919Z,3.00
2023-01-10T19:28:54.727Z,2.30
2023-01-10T19:31:25.575Z,3.90
2023-01-10T19:33:54.601Z,2.57
2023-01-10T19:36:25.716Z,3.10
2023-01-10T19:38:58.808Z,7.77
2023-01-10T19:41:29.799Z,3.93
2023-01-10T19:43:59.141Z,1.93
2023-01-10T19:46:28.248Z,3.53
2023-01-10T19:48:57.454Z,3.33
2023-01-10T19:51:27.540Z,3.97
2023-01-10T19:53:56.103Z,3.03
2023-01-10T19:56:24.714Z,2.20
2023-01-10T19:58:55.979Z,4.17
2023-01-10T20:01:26.840Z,3.97
2023-01-10T20:03:58.655Z,1.83
2023-01-10T20:06:30.236Z,3.27
2023-01-10T20:08:59.440Z,2.70
2023-01-10T20:11:37.338Z,2.63
2023-01-10T20:14:06.378Z,1.17
2023-01-10T20:16:35.201Z,2.67
2023-01-10T20:19:05.546Z,1.47
2023-01-10T20:21:37.086Z,1.00
2023-01-10T20:24:09.427Z,1.30
2023-01-10T20:26:37.973Z,2.63
2023-01-10T20:29:07.065Z,1.30
2023-01-10T20:31:36.027Z,0.90
2023-01-10T20:34:04.738Z,1.90
2023-01-10T20:36:33.492Z,1.53
2023-01-10T20:39:03.502Z,2.13
2023-01-10T20:41:32.713Z,2.00
2023-01-10T20:44:01.329Z,2.43
2023-01-10T20:46:32.986Z,1.10
2023-01-10T20:49:03.233Z,2.70
2023-01-10T20:51:33.567Z,0.83
2023-01-10T20:54:05.992Z,2.43
2023-01-10T20:56:35.431Z,2.57
2023-01-10T20:59:04.297Z,1.90
2023-01-10T21:01:35.113Z,2.20
2023-01-10T21:04:05.570Z,0.80
2023-01-10T21:06:34.744Z,1.10
2023-01-10T21:09:05.329Z,0.90
2023-01-10T21:11:44.477Z,1.83
2023-01-10T21:14:21.050Z,2.70
2023-01-10T21:16:50.603Z,1.63
2023-01-10T21:19:20.564Z,2.90
2023-01-10T21:21:49.348Z,2.30
2023-01-10T21:24:23.091Z,0.93
2023-01-10T21:26:52.020Z,1.67
2023-01-10T21:29:20.732Z,1.37
2023-01-10T21:31:49.353Z,1.57
2023-01-10T21:34:17.979Z,2.97
2023-01-10T21:36:46.629Z,2.20
2023-01-10T21:39:18.125Z,3.23
2023-01-10T21:42:08.422Z,3.93
2023-01-10T21:44:37.456Z,2.93
2023-01-10T21:47:06.677Z,2.40
2023-01-10T21:49:35.348Z,2.93
2023-01-10T21:52:03.813Z,1.33
2023-01-10T21:54:34.913Z,2.20
2023-01-10T21:57:05.167Z,1.47
2023-01-10T21:59:34.148Z,3.73
2023-01-10T22:02:02.723Z,0.90
2023-01-10T22:04:31.343Z,2.73
2023-01-10T22:07:00.202Z,0.87
2023-01-10T22:09:29.448Z,1.37
2023-01-10T22:11:58.063Z,3.70
2023-01-10T22:14:28.077Z,1.23
2023-01-10T22:16:56.853Z,1.93
2023-01-10T22:19:25.344Z,1.47
2023-01-10T22:21:53.927Z,3.67
2023-01-10T22:24:22.539Z,0.73
2023-01-10T22:26:54.104Z,2.30
2023-01-10T22:29:22.806Z,1.90
2023-01-10T22:31:53.489Z,1.33
2023-01-10T22:34:22.885Z,3.03
2023-01-10T22:36:51.692Z,2.10
2023-01-10T22:39:20.359Z,2.77
2023-01-10T22:41:49.020Z,0.70
2023-01-10T22:44:20.305Z,0.87
2023-01-10T22:46:50.993Z,2.30
2023-01-10T22:49:21.630Z,1.90
2023-01-10T22:51:50.461Z,2.43
2023-01-10T22:54:19.195Z,3.77
2023-01-10T22:56:48.515Z,1.40
2023-01-10T22:59:26.906Z,3.00
2023-01-10T23:01:56.040Z,1.30
2023-01-10T23:04:26.306Z,2.83
2023-01-10T23:06:56.859Z,2.53
2023-01-10T23:09:25.696Z,0.90
2023-01-10T23:11:54.290Z,3.23
2023-01-10T23:14:22.870Z,1.00
2023-01-10T23:16:51.491Z,2.43
2023-01-10T23:19:20.353Z,4.60
2023-01-10T23:21:51.491Z,1.63
2023-01-10T23:24:20.319Z,1.47
2023-01-10T23:26:50.556Z,3.57
2023-01-10T23:29:19.491Z,3.40
2023-01-10T23:31:50.156Z,2.20
2023-01-10T23:34:18.887Z,2.17
2023-01-10T23:36:47.332Z,2.73
2023-01-10T23:39:19.107Z,1.60
2023-01-10T23:41:47.689Z,4.70
2023-01-10T23:44:16.253Z,2.07
2023-01-10T23:46:44.828Z,1.73
2023-01-10T23:49:13.551Z,3.27
2023-01-10T23:51:42.489Z,4.50
2023-01-10T23:54:11.160Z,0.83
2023-01-10T23:56:41.086Z,3.63
2023-01-10T23:59:09.523Z,2.77
